TimeMDT,TemperatureF,Dew PointF,Humidity,Sea Level PressureIn,VisibilityMPH,Wind Direction,Wind SpeedMPH,Gust SpeedMPH,PrecipitationIn,Events,Conditions,WindDirDegrees,DateUTC
12:53 AM,57.0,42.1,57,29.99,10.0,SSE,3.5,-,N/A,,Clear,160,2013-08-22 06:53:00
1:53 AM,55.9,42.1,60,29.98,10.0,South,4.6,-,N/A,,Clear,190,2013-08-22 07:53:00
2:53 AM,54.0,44.1,69,29.99,10.0,SSW,4.6,-,N/A,,Mostly Cloudy,200,2013-08-22 08:53:00
3:53 AM,55.0,42.1,62,30.01,10.0,South,5.8,-,N/A,,Clear,190,2013-08-22 09:53:00
4:53 AM,54.0,42.1,64,30.02,10.0,SSW,8.1,-,N/A,,Clear,210,2013-08-22 10:53:00
5:53 AM,53.1,43.0,69,30.05,10.0,South,3.5,-,N/A,,Overcast,180,2013-08-22 11:53:00
6:53 AM,55.0,43.0,64,30.07,10.0,Calm,Calm,-,N/A,,Mostly Cloudy,0,2013-08-22 12:53:00
7:53 AM,57.9,44.1,60,30.08,10.0,Calm,Calm,-,N/A,,Mostly Cloudy,0,2013-08-22 13:53:00
8:53 AM,59.0,46.9,64,30.09,10.0,SSE,5.8,-,0.00,,Mostly Cloudy,150,2013-08-22 14:53:00
9:53 AM,63.0,48.0,58,30.07,10.0,SE,6.9,-,N/A,,Mostly Cloudy,130,2013-08-22 15:53:00
10:53 AM,66.9,46.0,47,30.04,10.0,ESE,6.9,-,N/A,,Partly Cloudy,120,2013-08-22 16:53:00
11:53 AM,73.0,43.0,34,29.99,10.0,North,6.9,-,N/A,,Scattered Clouds,360,2013-08-22 17:53:00
12:53 PM,78.1,42.1,28,29.96,10.0,North,10.4,-,N/A,,Scattered Clouds,10,2013-08-22 18:53:00
1:53 PM,79.0,42.1,27,29.94,10.0,NNW,10.4,-,N/A,,Partly Cloudy,340,2013-08-22 19:53:00
2:53 PM,78.1,44.1,30,29.94,10.0,Variable,3.5,16.1,N/A,,Scattered Clouds,0,2013-08-22 20:53:00
3:53 PM,77.0,44.1,31,29.92,10.0,NNW,5.8,-,N/A,,Partly Cloudy,340,2013-08-22 21:53:00
4:53 PM,77.0,43.0,30,29.90,10.0,NW,9.2,17.3,N/A,,Clear,310,2013-08-22 22:53:00
5:53 PM,75.9,43.0,31,29.89,10.0,NNW,6.9,-,N/A,,Scattered Clouds,330,2013-08-22 23:53:00
6:25 PM,73.4,42.8,33,30.26,10.0,Variable,3.5,-,N/A,,Scattered Clouds,0,2013-08-23 00:25:00
6:32 PM,73.4,42.8,33,30.26,10.0,Calm,Calm,-,N/A,Thunderstorm,Thunderstorm,0,2013-08-23 00:32:00
6:53 PM,73.9,42.1,32,29.88,10.0,Calm,Calm,-,N/A,Thunderstorm,Thunderstorm,0,2013-08-23 00:53:00
7:50 PM,55.4,51.8,88,30.33,2.5,SSE,12.7,-,0.19,Rain-Thunderstorm,Heavy Thunderstorms and Rain,150,2013-08-23 01:50:00
7:53 PM,55.9,52.0,87,30.03,3.0,SSW,8.1,20.7,0.20,Rain-Thunderstorm,Light Thunderstorms and Rain,210,2013-08-23 01:53:00
8:36 PM,55.4,53.6,94,30.34,10.0,SSE,6.9,-,0.11,,Scattered Clouds,150,2013-08-23 02:36:00
8:49 PM,55.4,53.6,94,30.34,10.0,SSE,6.9,-,0.11,Thunderstorm,Thunderstorm,160,2013-08-23 02:49:00
8:53 PM,55.9,53.1,90,30.02,10.0,SSE,9.2,-,0.11,Thunderstorm,Thunderstorm,150,2013-08-23 02:53:00
9:04 PM,55.4,51.8,88,30.35,10.0,SE,5.8,-,N/A,,Mostly Cloudy,140,2013-08-23 03:04:00
9:53 PM,55.0,53.1,93,30.04,10.0,Variable,4.6,-,0.00,,Overcast,0,2013-08-23 03:53:00
10:53 PM,55.0,52.0,89,30.01,10.0,Calm,Calm,-,N/A,,Scattered Clouds,0,2013-08-23 04:53:00
11:53 PM,54.0,52.0,93,29.99,10.0,Calm,Calm,-,N/A,,Mostly Cloudy,0,2013-08-23 05:53:00